sensor_id;sensor_type;location;lat;lon;timestamp;P1;durP1;ratioP1;P2;durP2;ratioP2
79346;SDS011;68815;48.810;44.482;2023-08-06T07:37:12;13.2;;;4.1;;
79346;SDS011;68815;48.810;44.482;2023-08-06T07:40:14;12.1;;;4.1;;
79346;SDS011;68815;48.810;44.482;2023-08-06T07:43:15;8.1;;;3.7;;
79346;SDS011;68815;48.810;44.482;2023-08-06T07:46:16;7.2;;;3.6;;
79346;SDS011;68815;48.810;44.482;2023-08-06T07:49:18;11.9;;;3.7;;
79346;SDS011;68815;48.810;44.482;2023-08-06T07:52:19;9;;;3.6;;
79346;SDS011;68815;48.810;44.482;2023-08-06T07:55:21;8;;;3.4;;
79346;SDS011;68815;48.810;44.482;2023-08-06T07:58:23;6.3;;;3.2;;
79346;SDS011;68815;48.810;44.482;2023-08-06T08:01:25;10.2;;;3.5;;
79346;SDS011;68815;48.810;44.482;2023-08-06T08:04:27;5.5;;;3.5;;
79346;SDS011;68815;48.810;44.482;2023-08-06T08:07:28;7.3;;;3.6;;
79346;SDS011;68815;48.810;44.482;2023-08-06T08:10:30;6.5;;;3.3;;
79346;SDS011;68815;48.810;44.482;2023-08-06T08:13:32;5.8;;;3.1;;
79346;SDS011;68815;48.810;44.482;2023-08-06T08:16:33;7.9;;;3.4;;
79346;SDS011;68815;48.810;44.482;2023-08-06T08:19:35;7.3;;;3.4;;
79346;SDS011;68815;48.810;44.482;2023-08-06T08:22:37;7.5;;;3.2;;
79346;SDS011;68815;48.810;44.482;2023-08-06T08:25:38;7.5;;;3.5;;
79346;SDS011;68815;48.810;44.482;2023-08-06T08:28:39;12.2;;;3.8;;
79346;SDS011;68815;48.810;44.482;2023-08-06T08:31:41;12.7;;;3.6;;
79346;SDS011;68815;48.810;44.482;2023-08-06T08:34:42;8;;;3;;
79346;SDS011;68815;48.810;44.482;2023-08-06T08:37:44;6.2;;;3;;
79346;SDS011;68815;48.810;44.482;2023-08-06T08:40:46;7.3;;;3.3;;
79346;SDS011;68815;48.810;44.482;2023-08-06T08:43:53;9.7;;;3.3;;
79346;SDS011;68815;48.810;44.482;2023-08-06T08:46:54;7;;;3.1;;
79346;SDS011;68815;48.810;44.482;2023-08-06T08:49:56;7.2;;;3.4;;
79346;SDS011;68815;48.810;44.482;2023-08-06T08:52:58;7.7;;;3.5;;
79346;SDS011;68815;48.810;44.482;2023-08-06T08:56:00;9.6;;;3.5;;
79346;SDS011;68815;48.810;44.482;2023-08-06T08:59:02;7.2;;;3.6;;
79346;SDS011;68815;48.810;44.482;2023-08-06T09:02:04;7.2;;;3.4;;
79346;SDS011;68815;48.810;44.482;2023-08-06T09:05:06;7.4;;;3.3;;
79346;SDS011;68815;48.810;44.482;2023-08-06T09:08:08;7.7;;;3.5;;
79346;SDS011;68815;48.810;44.482;2023-08-06T09:11:13;7.4;;;3.5;;
79346;SDS011;68815;48.810;44.482;2023-08-06T09:14:14;6.7;;;3;;
79346;SDS011;68815;48.810;44.482;2023-08-06T09:17:17;5.7;;;3;;
79346;SDS011;68815;48.810;44.482;2023-08-06T09:20:19;6.3;;;3.4;;
79346;SDS011;68815;48.810;44.482;2023-08-06T09:23:21;10;;;4;;
79346;SDS011;68815;48.810;44.482;2023-08-06T09:26:33;7.2;;;3.2;;
79346;SDS011;68815;48.810;44.482;2023-08-06T09:29:35;5.6;;;3.4;;
79346;SDS011;68815;48.810;44.482;2023-08-06T09:32:44;9.2;;;3.3;;
79346;SDS011;68815;48.810;44.482;2023-08-06T09:35:46;7.2;;;3.1;;
79346;SDS011;68815;48.810;44.482;2023-08-06T09:38:48;10.2;;;3.4;;
79346;SDS011;68815;48.810;44.482;2023-08-06T09:41:49;6.6;;;2.9;;
79346;SDS011;68815;48.810;44.482;2023-08-06T09:45:05;6.3;;;3.1;;
79346;SDS011;68815;48.810;44.482;2023-08-06T09:48:08;10.5;;;3.6;;
79346;SDS011;68815;48.810;44.482;2023-08-06T09:51:10;6.3;;;3.1;;
79346;SDS011;68815;48.810;44.482;2023-08-06T09:54:14;7.4;;;3.2;;
79346;SDS011;68815;48.810;44.482;2023-08-06T09:57:16;10.6;;;3.4;;
79346;SDS011;68815;48.810;44.482;2023-08-06T10:00:18;9;;;3.3;;
79346;SDS011;68815;48.810;44.482;2023-08-06T10:03:20;7.2;;;3.2;;
79346;SDS011;68815;48.810;44.482;2023-08-06T10:06:22;7.4;;;3.6;;
79346;SDS011;68815;48.810;44.482;2023-08-06T10:09:25;6;;;3.2;;
79346;SDS011;68815;48.810;44.482;2023-08-06T10:12:27;6.3;;;3;;
79346;SDS011;68815;48.810;44.482;2023-08-06T10:15:34;6.7;;;3.3;;
79346;SDS011;68815;48.810;44.482;2023-08-06T10:18:38;8.1;;;3.2;;
79346;SDS011;68815;48.810;44.482;2023-08-06T10:21:40;8.8;;;3.3;;
79346;SDS011;68815;48.810;44.482;2023-08-06T10:24:46;8.9;;;3.1;;
79346;SDS011;68815;48.810;44.482;2023-08-06T10:27:53;6.5;;;3.1;;
79346;SDS011;68815;48.810;44.482;2023-08-06T10:30:55;7;;;3.1;;
79346;SDS011;68815;48.810;44.482;2023-08-06T10:33:57;7.4;;;3.3;;
79346;SDS011;68815;48.810;44.482;2023-08-06T10:36:58;6.3;;;3;;
79346;SDS011;68815;48.810;44.482;2023-08-06T10:40:00;5.5;;;2.8;;
79346;SDS011;68815;48.810;44.482;2023-08-06T10:43:02;6.4;;;3.1;;
79346;SDS011;68815;48.810;44.482;2023-08-06T10:46:09;7.2;;;2.9;;
79346;SDS011;68815;48.810;44.482;2023-08-06T10:49:12;7.7;;;3.4;;
79346;SDS011;68815;48.810;44.482;2023-08-06T10:52:19;8;;;2.9;;
79346;SDS011;68815;48.810;44.482;2023-08-06T10:55:24;5.8;;;2.9;;
79346;SDS011;68815;48.810;44.482;2023-08-06T10:58:30;6.4;;;3.2;;
79346;SDS011;68815;48.810;44.482;2023-08-06T11:01:32;7.2;;;3.3;;
79346;SDS011;68815;48.810;44.482;2023-08-06T11:04:34;5.5;;;3.3;;
79346;SDS011;68815;48.810;44.482;2023-08-06T11:07:35;9.2;;;3.3;;
79346;SDS011;68815;48.810;44.482;2023-08-06T11:10:37;6;;;3.2;;
79346;SDS011;68815;48.810;44.482;2023-08-06T11:13:39;9.6;;;3.3;;
79346;SDS011;68815;48.810;44.482;2023-08-06T11:16:40;8.6;;;3.3;;
79346;SDS011;68815;48.810;44.482;2023-08-06T11:19:42;8.4;;;3.4;;
79346;SDS011;68815;48.810;44.482;2023-08-06T11:22:45;5.3;;;3;;
79346;SDS011;68815;48.810;44.482;2023-08-06T11:25:46;5.9;;;3;;
79346;SDS011;68815;48.810;44.482;2023-08-06T11:28:47;8.6;;;3;;
79346;SDS011;68815;48.810;44.482;2023-08-06T11:31:49;6.5;;;3.4;;
79346;SDS011;68815;48.810;44.482;2023-08-06T11:34:52;6.1;;;3;;
79346;SDS011;68815;48.810;44.482;2023-08-06T11:37:54;6.2;;;3.2;;
79346;SDS011;68815;48.810;44.482;2023-08-06T11:40:55;6.9;;;3;;
79346;SDS011;68815;48.810;44.482;2023-08-06T11:43:57;5.8;;;3.1;;
79346;SDS011;68815;48.810;44.482;2023-08-06T11:46:59;9.5;;;3;;
79346;SDS011;68815;48.810;44.482;2023-08-06T11:50:02;6.2;;;2.8;;
79346;SDS011;68815;48.810;44.482;2023-08-06T11:53:03;6.1;;;2.9;;
79346;SDS011;68815;48.810;44.482;2023-08-06T11:56:05;7.2;;;3.2;;
79346;SDS011;68815;48.810;44.482;2023-08-06T11:59:07;5.2;;;3;;
79346;SDS011;68815;48.810;44.482;2023-08-06T12:02:09;5.9;;;3;;
79346;SDS011;68815;48.810;44.482;2023-08-06T12:05:11;5.8;;;3.1;;
79346;SDS011;68815;48.810;44.482;2023-08-06T12:08:13;6.5;;;2.9;;
79346;SDS011;68815;48.810;44.482;2023-08-06T12:11:14;6.3;;;3;;
79346;SDS011;68815;48.810;44.482;2023-08-06T12:14:16;7.5;;;3.4;;
79346;SDS011;68815;48.810;44.482;2023-08-06T12:17:17;5.2;;;3.2;;
79346;SDS011;68815;48.810;44.482;2023-08-06T12:20:19;5.6;;;3.1;;
79346;SDS011;68815;48.810;44.482;2023-08-06T12:23:20;6.7;;;3.3;;
79346;SDS011;68815;48.810;44.482;2023-08-06T12:26:22;7.6;;;3.4;;
79346;SDS011;68815;48.810;44.482;2023-08-06T12:29:24;7.3;;;3.2;;
79346;SDS011;68815;48.810;44.482;2023-08-06T12:32:26;9.1;;;3.2;;
79346;SDS011;68815;48.810;44.482;2023-08-06T12:35:27;6.9;;;3;;
79346;SDS011;68815;48.810;44.482;2023-08-06T12:38:29;6.6;;;3.2;;
79346;SDS011;68815;48.810;44.482;2023-08-06T12:41:30;5.6;;;3.4;;
79346;SDS011;68815;48.810;44.482;2023-08-06T12:44:32;9;;;3.4;;
79346;SDS011;68815;48.810;44.482;2023-08-06T12:47:34;7.6;;;3.5;;
79346;SDS011;68815;48.810;44.482;2023-08-06T12:50:35;5.8;;;3.3;;
79346;SDS011;68815;48.810;44.482;2023-08-06T12:53:37;5.8;;;3.1;;
79346;SDS011;68815;48.810;44.482;2023-08-06T12:56:38;7.3;;;3;;
79346;SDS011;68815;48.810;44.482;2023-08-06T12:59:40;6;;;3.4;;
79346;SDS011;68815;48.810;44.482;2023-08-06T13:02:42;7.9;;;3;;
79346;SDS011;68815;48.810;44.482;2023-08-06T13:05:43;8.7;;;3;;
79346;SDS011;68815;48.810;44.482;2023-08-06T13:08:44;6.2;;;3.1;;
79346;SDS011;68815;48.810;44.482;2023-08-06T13:11:46;6.9;;;3.2;;
79346;SDS011;68815;48.810;44.482;2023-08-06T13:14:48;6.1;;;3.2;;
79346;SDS011;68815;48.810;44.482;2023-08-06T13:17:49;8.3;;;2.9;;
79346;SDS011;68815;48.810;44.482;2023-08-06T13:20:52;5.8;;;2.8;;
79346;SDS011;68815;48.810;44.482;2023-08-06T13:23:54;6;;;2.8;;
79346;SDS011;68815;48.810;44.482;2023-08-06T13:26:55;6.8;;;2.9;;
79346;SDS011;68815;48.810;44.482;2023-08-06T13:29:57;6.5;;;2.7;;
79346;SDS011;68815;48.810;44.482;2023-08-06T13:32:58;6.7;;;2.9;;
79346;SDS011;68815;48.810;44.482;2023-08-06T13:36:00;8.2;;;3.3;;
79346;SDS011;68815;48.810;44.482;2023-08-06T13:39:01;7.7;;;3.7;;
79346;SDS011;68815;48.810;44.482;2023-08-06T13:42:03;5.7;;;3.5;;
79346;SDS011;68815;48.810;44.482;2023-08-06T13:45:04;6.5;;;2.9;;
79346;SDS011;68815;48.810;44.482;2023-08-06T13:48:07;6;;;2.8;;
79346;SDS011;68815;48.810;44.482;2023-08-06T13:51:08;5.5;;;2.7;;
79346;SDS011;68815;48.810;44.482;2023-08-06T13:54:10;5.7;;;3;;
79346;SDS011;68815;48.810;44.482;2023-08-06T13:57:12;6.6;;;3.2;;
79346;SDS011;68815;48.810;44.482;2023-08-06T14:00:13;7.3;;;2.9;;
79346;SDS011;68815;48.810;44.482;2023-08-06T14:03:16;7.2;;;3.1;;
79346;SDS011;68815;48.810;44.482;2023-08-06T14:06:17;6.3;;;2.9;;
79346;SDS011;68815;48.810;44.482;2023-08-06T14:09:18;5.9;;;2.9;;
79346;SDS011;68815;48.810;44.482;2023-08-06T14:12:20;7.5;;;2.9;;
79346;SDS011;68815;48.810;44.482;2023-08-06T14:15:21;7.3;;;3.2;;
79346;SDS011;68815;48.810;44.482;2023-08-06T14:18:23;5.5;;;3;;
79346;SDS011;68815;48.810;44.482;2023-08-06T14:21:24;7.1;;;2.9;;
79346;SDS011;68815;48.810;44.482;2023-08-06T14:24:26;5.5;;;3;;
79346;SDS011;68815;48.810;44.482;2023-08-06T14:27:27;5.9;;;3.1;;
79346;SDS011;68815;48.810;44.482;2023-08-06T14:30:29;7.3;;;3;;
79346;SDS011;68815;48.810;44.482;2023-08-06T14:33:30;7;;;3.1;;
79346;SDS011;68815;48.810;44.482;2023-08-06T14:36:32;7.3;;;3.3;;
79346;SDS011;68815;48.810;44.482;2023-08-06T14:39:33;7.9;;;3.3;;
79346;SDS011;68815;48.810;44.482;2023-08-06T14:42:35;5.8;;;2.9;;
79346;SDS011;68815;48.810;44.482;2023-08-06T14:45:37;8.6;;;3.4;;
79346;SDS011;68815;48.810;44.482;2023-08-06T14:48:38;6.1;;;3.1;;
79346;SDS011;68815;48.810;44.482;2023-08-06T14:51:40;11;;;3.2;;
79346;SDS011;68815;48.810;44.482;2023-08-06T14:54:41;8.8;;;3;;
79346;SDS011;68815;48.810;44.482;2023-08-06T14:57:43;9.2;;;4.3;;
79346;SDS011;68815;48.810;44.482;2023-08-06T15:00:46;8.2;;;3.4;;
79346;SDS011;68815;48.810;44.482;2023-08-06T15:03:49;8.5;;;3.4;;
79346;SDS011;68815;48.810;44.482;2023-08-06T15:06:51;7.8;;;3.4;;
79346;SDS011;68815;48.810;44.482;2023-08-06T15:09:52;8.4;;;3.2;;
79346;SDS011;68815;48.810;44.482;2023-08-06T15:12:54;10.2;;;3.5;;
79346;SDS011;68815;48.810;44.482;2023-08-06T15:15:55;6.8;;;3.5;;
79346;SDS011;68815;48.810;44.482;2023-08-06T15:18:57;7.1;;;3.7;;
79346;SDS011;68815;48.810;44.482;2023-08-06T15:21:59;7.3;;;3.5;;
79346;SDS011;68815;48.810;44.482;2023-08-06T15:25:00;9.4;;;3.8;;
79346;SDS011;68815;48.810;44.482;2023-08-06T15:28:02;9.1;;;3.7;;
79346;SDS011;68815;48.810;44.482;2023-08-06T15:31:04;7.5;;;3.8;;
79346;SDS011;68815;48.810;44.482;2023-08-06T15:34:06;7.3;;;3.6;;
79346;SDS011;68815;48.810;44.482;2023-08-06T15:37:07;7.6;;;4.2;;
79346;SDS011;68815;48.810;44.482;2023-08-06T15:40:09;9.1;;;4.1;;
79346;SDS011;68815;48.810;44.482;2023-08-06T15:43:11;11;;;5.8;;
79346;SDS011;68815;48.810;44.482;2023-08-06T15:46:13;8.6;;;4.3;;
79346;SDS011;68815;48.810;44.482;2023-08-06T15:49:14;7.6;;;4.3;;
79346;SDS011;68815;48.810;44.482;2023-08-06T15:52:16;9.6;;;3.9;;
79346;SDS011;68815;48.810;44.482;2023-08-06T15:55:18;7;;;3.8;;
79346;SDS011;68815;48.810;44.482;2023-08-06T15:58:19;8.4;;;4;;
79346;SDS011;68815;48.810;44.482;2023-08-06T16:01:21;10.2;;;4.1;;
79346;SDS011;68815;48.810;44.482;2023-08-06T16:04:22;9;;;4.1;;
79346;SDS011;68815;48.810;44.482;2023-08-06T16:07:24;8.6;;;4.4;;
79346;SDS011;68815;48.810;44.482;2023-08-06T16:10:26;11.6;;;4.2;;
79346;SDS011;68815;48.810;44.482;2023-08-06T16:13:27;10.3;;;4.1;;
79346;SDS011;68815;48.810;44.482;2023-08-06T16:16:29;11.9;;;4.2;;
79346;SDS011;68815;48.810;44.482;2023-08-06T16:19:31;9.7;;;4.4;;
79346;SDS011;68815;48.810;44.482;2023-08-06T16:22:32;9.6;;;4.1;;
79346;SDS011;68815;48.810;44.482;2023-08-06T16:25:36;9.7;;;4.4;;
79346;SDS011;68815;48.810;44.482;2023-08-06T16:28:37;10.9;;;4.2;;
79346;SDS011;68815;48.810;44.482;2023-08-06T16:31:45;11.8;;;4.8;;
79346;SDS011;68815;48.810;44.482;2023-08-06T16:34:47;8.6;;;4.3;;
79346;SDS011;68815;48.810;44.482;2023-08-06T16:37:49;10.8;;;4.4;;
79346;SDS011;68815;48.810;44.482;2023-08-06T16:40:51;10.2;;;4.5;;
79346;SDS011;68815;48.810;44.482;2023-08-06T16:43:53;10.6;;;4.4;;
79346;SDS011;68815;48.810;44.482;2023-08-06T16:46:55;10.1;;;4.1;;
79346;SDS011;68815;48.810;44.482;2023-08-06T16:49:57;9.6;;;4.4;;
79346;SDS011;68815;48.810;44.482;2023-08-06T16:52:58;12.4;;;4.5;;
79346;SDS011;68815;48.810;44.482;2023-08-06T16:56:00;9.9;;;4.5;;
79346;SDS011;68815;48.810;44.482;2023-08-06T16:59:01;11.8;;;4.6;;
79346;SDS011;68815;48.810;44.482;2023-08-06T17:02:03;10.2;;;4.6;;
79346;SDS011;68815;48.810;44.482;2023-08-06T17:05:05;11.6;;;4.5;;
79346;SDS011;68815;48.810;44.482;2023-08-06T17:08:06;18.2;;;5;;
79346;SDS011;68815;48.810;44.482;2023-08-06T17:11:08;17.2;;;5.2;;
79346;SDS011;68815;48.810;44.482;2023-08-06T17:14:10;11.2;;;4.6;;
79346;SDS011;68815;48.810;44.482;2023-08-06T17:17:11;9.2;;;4.6;;
79346;SDS011;68815;48.810;44.482;2023-08-06T17:20:13;9.8;;;4.5;;
79346;SDS011;68815;48.810;44.482;2023-08-06T17:23:15;13.7;;;4.7;;
79346;SDS011;68815;48.810;44.482;2023-08-06T17:26:17;9.2;;;4.5;;
79346;SDS011;68815;48.810;44.482;2023-08-06T17:29:25;10.1;;;4.3;;
79346;SDS011;68815;48.810;44.482;2023-08-06T17:32:28;8.7;;;4.7;;
79346;SDS011;68815;48.810;44.482;2023-08-06T17:35:30;10.1;;;5.7;;
79346;SDS011;68815;48.810;44.482;2023-08-06T17:38:32;10.9;;;5.6;;
79346;SDS011;68815;48.810;44.482;2023-08-06T17:41:33;9.2;;;5.1;;
79346;SDS011;68815;48.810;44.482;2023-08-06T17:44:41;9;;;4.7;;
79346;SDS011;68815;48.810;44.482;2023-08-06T17:47:42;7.6;;;4.7;;
79346;SDS011;68815;48.810;44.482;2023-08-06T17:50:44;11.8;;;4.9;;
79346;SDS011;68815;48.810;44.482;2023-08-06T17:53:45;18.1;;;4.8;;
79346;SDS011;68815;48.810;44.482;2023-08-06T17:56:47;9.4;;;4.9;;
79346;SDS011;68815;48.810;44.482;2023-08-06T17:59:48;9.6;;;4.6;;
79346;SDS011;68815;48.810;44.482;2023-08-06T18:02:50;9.2;;;4.9;;
79346;SDS011;68815;48.810;44.482;2023-08-06T18:05:55;8.8;;;4.6;;
79346;SDS011;68815;48.810;44.482;2023-08-06T18:08:57;12.8;;;5;;
79346;SDS011;68815;48.810;44.482;2023-08-06T18:11:58;12.3;;;5;;
79346;SDS011;68815;48.810;44.482;2023-08-06T18:14:59;10.6;;;4.8;;
79346;SDS011;68815;48.810;44.482;2023-08-06T18:18:01;9.5;;;4.7;;
79346;SDS011;68815;48.810;44.482;2023-08-06T18:21:02;8;;;4.6;;
79346;SDS011;68815;48.810;44.482;2023-08-06T18:24:04;9.3;;;4.8;;
79346;SDS011;68815;48.810;44.482;2023-08-06T18:27:06;9.9;;;4.8;;
79346;SDS011;68815;48.810;44.482;2023-08-06T18:30:08;8.3;;;4.7;;
79346;SDS011;68815;48.810;44.482;2023-08-06T18:33:09;8.9;;;4.6;;
79346;SDS011;68815;48.810;44.482;2023-08-06T18:36:11;8.9;;;5.2;;
79346;SDS011;68815;48.810;44.482;2023-08-06T18:39:12;11.3;;;5;;
79346;SDS011;68815;48.810;44.482;2023-08-06T18:42:14;11.3;;;4.9;;
79346;SDS011;68815;48.810;44.482;2023-08-06T18:45:16;10.6;;;5;;
79346;SDS011;68815;48.810;44.482;2023-08-06T18:48:18;11.6;;;5.2;;
79346;SDS011;68815;48.810;44.482;2023-08-06T18:51:19;10.3;;;5;;
79346;SDS011;68815;48.810;44.482;2023-08-06T18:54:21;8.3;;;4.9;;
79346;SDS011;68815;48.810;44.482;2023-08-06T18:57:22;8.9;;;4.9;;
79346;SDS011;68815;48.810;44.482;2023-08-06T19:00:24;12.8;;;5.4;;
79346;SDS011;68815;48.810;44.482;2023-08-06T19:03:25;9.8;;;5;;
79346;SDS011;68815;48.810;44.482;2023-08-06T19:06:27;8.4;;;4.8;;
79346;SDS011;68815;48.810;44.482;2023-08-06T19:09:28;9.4;;;4.9;;
79346;SDS011;68815;48.810;44.482;2023-08-06T19:12:29;10.8;;;5.7;;
79346;SDS011;68815;48.810;44.482;2023-08-06T19:15:31;9.3;;;5;;
79346;SDS011;68815;48.810;44.482;2023-08-06T19:18:32;12;;;5.4;;
79346;SDS011;68815;48.810;44.482;2023-08-06T19:21:34;10.4;;;5.3;;
79346;SDS011;68815;48.810;44.482;2023-08-06T19:24:35;7.6;;;5.1;;
79346;SDS011;68815;48.810;44.482;2023-08-06T19:27:37;6.9;;;4.9;;
79346;SDS011;68815;48.810;44.482;2023-08-06T19:30:38;9.3;;;5.2;;
79346;SDS011;68815;48.810;44.482;2023-08-06T19:33:40;10.3;;;5.4;;
79346;SDS011;68815;48.810;44.482;2023-08-06T19:36:41;11;;;5.5;;
79346;SDS011;68815;48.810;44.482;2023-08-06T19:39:43;11.8;;;6;;
79346;SDS011;68815;48.810;44.482;2023-08-06T19:42:45;9.4;;;5.5;;
79346;SDS011;68815;48.810;44.482;2023-08-06T19:45:47;10.1;;;5.2;;
79346;SDS011;68815;48.810;44.482;2023-08-06T19:48:49;9.8;;;5.2;;
79346;SDS011;68815;48.810;44.482;2023-08-06T19:51:51;7.9;;;5;;
79346;SDS011;68815;48.810;44.482;2023-08-06T19:54:52;8.9;;;5.3;;
79346;SDS011;68815;48.810;44.482;2023-08-06T19:57:54;8.2;;;5.3;;
79346;SDS011;68815;48.810;44.482;2023-08-06T20:00:55;8.8;;;5.3;;
79346;SDS011;68815;48.810;44.482;2023-08-06T20:03:57;8.9;;;5.1;;
79346;SDS011;68815;48.810;44.482;2023-08-06T20:06:59;10.6;;;5.3;;
79346;SDS011;68815;48.810;44.482;2023-08-06T20:10:00;9.6;;;5.4;;
79346;SDS011;68815;48.810;44.482;2023-08-06T20:13:01;10;;;5.2;;
79346;SDS011;68815;48.810;44.482;2023-08-06T20:16:03;8.8;;;4.9;;
79346;SDS011;68815;48.810;44.482;2023-08-06T20:19:04;11;;;5.6;;
79346;SDS011;68815;48.810;44.482;2023-08-06T20:22:06;10;;;5.6;;
79346;SDS011;68815;48.810;44.482;2023-08-06T20:25:07;12.4;;;5.9;;
79346;SDS011;68815;48.810;44.482;2023-08-06T20:28:09;9.5;;;5.9;;
79346;SDS011;68815;48.810;44.482;2023-08-06T20:31:10;11.3;;;5.1;;
79346;SDS011;68815;48.810;44.482;2023-08-06T20:34:12;8.2;;;5.5;;
79346;SDS011;68815;48.810;44.482;2023-08-06T20:37:13;11.8;;;5.8;;
79346;SDS011;68815;48.810;44.482;2023-08-06T20:40:14;9.9;;;5.9;;
79346;SDS011;68815;48.810;44.482;2023-08-06T20:43:16;8.9;;;5.4;;
79346;SDS011;68815;48.810;44.482;2023-08-06T20:46:18;11.2;;;5.6;;
79346;SDS011;68815;48.810;44.482;2023-08-06T20:49:20;10.1;;;5.8;;
79346;SDS011;68815;48.810;44.482;2023-08-06T20:52:22;11.2;;;5.8;;
79346;SDS011;68815;48.810;44.482;2023-08-06T20:55:24;13.2;;;6.2;;
79346;SDS011;68815;48.810;44.482;2023-08-06T20:58:26;9.8;;;5.7;;
79346;SDS011;68815;48.810;44.482;2023-08-06T21:01:28;9.5;;;5.8;;
79346;SDS011;68815;48.810;44.482;2023-08-06T21:04:30;8.4;;;5.7;;
79346;SDS011;68815;48.810;44.482;2023-08-06T21:07:32;11.9;;;5.8;;
79346;SDS011;68815;48.810;44.482;2023-08-06T21:10:33;10.4;;;5.9;;
79346;SDS011;68815;48.810;44.482;2023-08-06T21:13:35;10.6;;;5.7;;
79346;SDS011;68815;48.810;44.482;2023-08-06T21:16:36;11.1;;;5.8;;
79346;SDS011;68815;48.810;44.482;2023-08-06T21:19:38;10.6;;;5.8;;
79346;SDS011;68815;48.810;44.482;2023-08-06T21:22:39;8.4;;;5.9;;
79346;SDS011;68815;48.810;44.482;2023-08-06T21:25:40;12.3;;;5.9;;
79346;SDS011;68815;48.810;44.482;2023-08-06T21:28:42;10.1;;;6;;
79346;SDS011;68815;48.810;44.482;2023-08-06T21:31:43;12;;;6.2;;
79346;SDS011;68815;48.810;44.482;2023-08-06T21:34:45;12.3;;;6.1;;
79346;SDS011;68815;48.810;44.482;2023-08-06T21:37:46;12.8;;;5.9;;
79346;SDS011;68815;48.810;44.482;2023-08-06T21:40:48;9.4;;;5.9;;
79346;SDS011;68815;48.810;44.482;2023-08-06T21:43:49;10.3;;;5.9;;
79346;SDS011;68815;48.810;44.482;2023-08-06T21:46:51;9;;;5.8;;
79346;SDS011;68815;48.810;44.482;2023-08-06T21:49:53;10.5;;;6.3;;
79346;SDS011;68815;48.810;44.482;2023-08-06T21:52:55;10.9;;;6.2;;
79346;SDS011;68815;48.810;44.482;2023-08-06T21:55:57;10.9;;;5.8;;
79346;SDS011;68815;48.810;44.482;2023-08-06T21:58:59;9.7;;;6.5;;
79346;SDS011;68815;48.810;44.482;2023-08-06T22:02:00;10.2;;;6.4;;
79346;SDS011;68815;48.810;44.482;2023-08-06T22:05:02;9.6;;;6.3;;
79346;SDS011;68815;48.810;44.482;2023-08-06T22:08:04;10.1;;;6.3;;
79346;SDS011;68815;48.810;44.482;2023-08-06T22:11:05;9.1;;;6.5;;
79346;SDS011;68815;48.810;44.482;2023-08-06T22:14:07;10.8;;;6;;
79346;SDS011;68815;48.810;44.482;2023-08-06T22:17:08;8.8;;;6.2;;
79346;SDS011;68815;48.810;44.482;2023-08-06T22:20:10;10.9;;;6.4;;
79346;SDS011;68815;48.810;44.482;2023-08-06T22:23:11;8.7;;;6.1;;
79346;SDS011;68815;48.810;44.482;2023-08-06T22:26:13;10;;;6.3;;
79346;SDS011;68815;48.810;44.482;2023-08-06T22:29:14;8.4;;;5.9;;
79346;SDS011;68815;48.810;44.482;2023-08-06T22:32:16;10.8;;;5.9;;
79346;SDS011;68815;48.810;44.482;2023-08-06T22:35:17;11.6;;;6.1;;
79346;SDS011;68815;48.810;44.482;2023-08-06T22:38:19;10.7;;;6.1;;
79346;SDS011;68815;48.810;44.482;2023-08-06T22:41:20;8.1;;;6.3;;
79346;SDS011;68815;48.810;44.482;2023-08-06T22:44:22;8.8;;;6.5;;
79346;SDS011;68815;48.810;44.482;2023-08-06T22:47:23;8.7;;;6.4;;
79346;SDS011;68815;48.810;44.482;2023-08-06T22:50:25;8.7;;;5.9;;
79346;SDS011;68815;48.810;44.482;2023-08-06T22:53:26;11.7;;;6.4;;
79346;SDS011;68815;48.810;44.482;2023-08-06T22:56:28;9.2;;;6;;
79346;SDS011;68815;48.810;44.482;2023-08-06T22:59:30;7.9;;;5.9;;
79346;SDS011;68815;48.810;44.482;2023-08-06T23:02:31;8;;;5.9;;
79346;SDS011;68815;48.810;44.482;2023-08-06T23:05:32;11.3;;;6.2;;
79346;SDS011;68815;48.810;44.482;2023-08-06T23:08:34;8.2;;;5.9;;
79346;SDS011;68815;48.810;44.482;2023-08-06T23:11:35;8.8;;;6;;
79346;SDS011;68815;48.810;44.482;2023-08-06T23:14:37;8.6;;;6;;
79346;SDS011;68815;48.810;44.482;2023-08-06T23:17:38;8.1;;;6.1;;
79346;SDS011;68815;48.810;44.482;2023-08-06T23:20:40;11.2;;;6.2;;
79346;SDS011;68815;48.810;44.482;2023-08-06T23:23:41;7.3;;;5.8;;
79346;SDS011;68815;48.810;44.482;2023-08-06T23:26:42;9.5;;;6.2;;
79346;SDS011;68815;48.810;44.482;2023-08-06T23:29:44;9.6;;;6.1;;
79346;SDS011;68815;48.810;44.482;2023-08-06T23:32:45;9.3;;;6.1;;
79346;SDS011;68815;48.810;44.482;2023-08-06T23:35:47;10.5;;;5.8;;
79346;SDS011;68815;48.810;44.482;2023-08-06T23:38:48;11.6;;;5.9;;
79346;SDS011;68815;48.810;44.482;2023-08-06T23:41:50;9.4;;;6;;
79346;SDS011;68815;48.810;44.482;2023-08-06T23:44:51;8.8;;;6.2;;
79346;SDS011;68815;48.810;44.482;2023-08-06T23:47:53;9.9;;;6.5;;
79346;SDS011;68815;48.810;44.482;2023-08-06T23:50:54;9.4;;;6.1;;
79346;SDS011;68815;48.810;44.482;2023-08-06T23:53:56;8.3;;;5.7;;
79346;SDS011;68815;48.810;44.482;2023-08-06T23:56:58;11.5;;;5.9;;
79346;SDS011;68815;48.810;44.482;2023-08-06T23:59:59;10;;;6;;
